Time;durP1;ratioP1;P1;durP2;ratioP2;P2;SDS_P1;SDS_P2;PMS_P1;PMS_P2;Temp;Humidity;BMP_temperature;BMP_pressure;BME280_temperature;BME280_humidity;BME280_pressure;Samples;Min_cycle;Max_cycle;Signal;HPM_P1;HPM_P2
2022/03/12 00:01:31;;;;;;;19.23;11.87;;;;;;;4.08;45.43;95641.78;4970456;28;20181;-79
2022/03/12 00:03:58;;;;;;;19.60;12.83;;;;;;;4.07;45.63;95633.25;4971040;28;20269;-79
2022/03/12 00:06:23;;;;;;;22.00;12.30;;;;;;;4.17;45.24;95633.44;4957365;28;20177;-80
2022/03/12 00:08:53;;;;;;;17.97;11.57;;;;;;;4.14;45.30;95634.44;4955609;28;20207;-80
2022/03/12 00:11:27;;;;;;;22.53;12.37;;;;;;;4.15;45.19;95630.97;4953506;28;20172;-79
2022/03/12 00:13:53;;;;;;;19.23;12.23;;;;;;;4.14;45.16;95629.31;4937550;29;20200;-80
2022/03/12 00:16:22;;;;;;;17.67;11.90;;;;;;;4.14;45.37;95633.63;4954633;28;20205;-79
2022/03/12 00:18:52;;;;;;;17.17;12.37;;;;;;;4.10;45.70;95633.03;4937901;29;20177;-79
2022/03/12 00:21:17;;;;;;;17.23;12.43;;;;;;;4.02;45.90;95643.03;4953469;28;20179;-78
2022/03/12 00:23:49;;;;;;;18.63;12.23;;;;;;;3.98;46.17;95637.28;4953243;28;20275;-78
2022/03/12 00:26:16;;;;;;;21.30;12.73;;;;;;;4.00;46.03;95639.75;4953602;28;20173;-79
2022/03/12 00:28:42;;;;;;;21.50;12.37;;;;;;;3.97;46.43;95637.34;4937531;29;20184;-78
2022/03/12 00:31:08;;;;;;;18.70;12.57;;;;;;;3.94;46.26;95635.84;4953438;28;20219;-79
2022/03/12 00:33:33;;;;;;;21.13;12.53;;;;;;;3.90;46.62;95639.56;4953243;28;20251;-78
2022/03/12 00:35:59;;;;;;;19.43;12.50;;;;;;;3.94;46.29;95637.59;4937196;29;20623;-79
2022/03/12 00:38:24;;;;;;;19.17;11.93;;;;;;;3.99;46.46;95632.97;4953168;29;20169;-80
2022/03/12 00:40:50;;;;;;;20.77;12.13;;;;;;;4.00;46.33;95642.31;4936924;29;20189;-79
2022/03/12 00:43:17;;;;;;;17.03;12.53;;;;;;;4.04;46.32;95630.88;4936761;29;20232;-79
2022/03/12 00:45:43;;;;;;;18.40;12.70;;;;;;;4.13;46.11;95639.69;4952846;29;20207;-80
2022/03/12 00:48:08;;;;;;;21.17;12.10;;;;;;;4.06;46.11;95631.59;4953054;28;20209;-79
2022/03/12 00:50:34;;;;;;;19.43;12.13;;;;;;;4.01;46.50;95638.00;4952022;28;20181;-79
2022/03/12 00:53:00;;;;;;;16.07;11.10;;;;;;;4.11;46.16;95629.53;4952559;29;20229;-78
2022/03/12 00:55:25;;;;;;;16.40;12.20;;;;;;;4.10;46.37;95633.03;4953137;28;20197;-79
2022/03/12 00:57:50;;;;;;;21.03;12.70;;;;;;;4.08;46.54;95636.66;4953012;28;20268;-80
2022/03/12 01:00:18;;;;;;;24.30;12.60;;;;;;;3.97;47.18;95639.94;4952892;28;20192;-79
2022/03/12 01:02:44;;;;;;;21.60;12.50;;;;;;;3.90;47.36;95643.88;4952456;28;20262;-79
2022/03/12 01:05:10;;;;;;;17.33;12.03;;;;;;;3.86;47.50;95652.69;4952728;28;20204;-78
2022/03/12 01:07:35;;;;;;;17.40;12.13;;;;;;;3.82;47.72;95643.56;4952926;29;20248;-80
2022/03/12 01:10:01;;;;;;;16.63;11.93;;;;;;;3.88;48.07;95651.66;4952407;29;20205;-79
2022/03/12 01:12:26;;;;;;;20.37;12.37;;;;;;;3.83;48.07;95648.59;4953524;28;20183;-79
2022/03/12 01:14:52;;;;;;;18.47;12.40;;;;;;;3.81;48.32;95649.63;4952727;29;20281;-80
2022/03/12 01:17:17;;;;;;;23.93;11.87;;;;;;;3.81;48.32;95650.47;4953582;28;20188;-79
2022/03/12 01:19:43;;;;;;;19.00;12.67;;;;;;;3.74;48.75;95650.97;4942078;29;20193;-79
2022/03/12 01:22:18;;;;;;;16.63;11.80;;;;;;;3.68;49.28;95644.50;4968111;28;20248;-79
2022/03/12 01:24:43;;;;;;;17.87;12.33;;;;;;;3.64;49.02;95646.44;4952388;28;20284;-79
2022/03/12 01:27:08;;;;;;;21.23;12.17;;;;;;;3.63;48.95;95646.56;4952432;29;20654;-80
2022/03/12 01:29:33;;;;;;;17.10;11.73;;;;;;;3.73;49.08;95644.19;4952657;28;20220;-80
2022/03/12 01:31:59;;;;;;;21.60;12.97;;;;;;;3.79;48.72;95643.75;4951681;29;20193;-78
2022/03/12 01:34:24;;;;;;;16.90;12.50;;;;;;;3.82;48.46;95638.44;4952309;29;20220;-79
2022/03/12 01:36:50;;;;;;;19.03;13.23;;;;;;;3.85;48.27;95644.16;4952017;29;20189;-79
2022/03/12 01:39:15;;;;;;;18.43;12.97;;;;;;;3.82;48.56;95641.81;4933302;29;20201;-80
2022/03/12 01:41:42;;;;;;;18.73;12.37;;;;;;;3.87;48.82;95642.31;4932768;29;20238;-79
2022/03/12 01:44:07;;;;;;;20.17;12.73;;;;;;;3.90;48.78;95644.69;4933400;29;20614;-79
2022/03/12 01:46:35;;;;;;;18.43;11.47;;;;;;;4.04;48.01;95642.91;4935994;29;20192;-80
2022/03/12 01:49:22;;;;;;;23.00;12.63;;;;;;;4.03;48.76;95642.09;4952452;28;20228;-80
2022/03/12 01:51:49;;;;;;;18.47;11.67;;;;;;;4.07;48.32;95638.41;4936215;29;20189;-79
2022/03/12 01:54:22;;;;;;;19.70;11.80;;;;;;;4.08;48.26;95644.34;4952444;28;20692;-80
2022/03/12 01:56:48;;;;;;;15.57;11.17;;;;;;;4.04;48.29;95642.91;4952311;28;20173;-79
2022/03/12 01:59:13;;;;;;;16.93;11.73;;;;;;;3.99;48.63;95643.25;4952197;29;20706;-77
2022/03/12 02:01:39;;;;;;;16.87;11.33;;;;;;;3.98;48.25;95637.28;4951904;28;20252;-80
2022/03/12 02:04:06;;;;;;;18.03;11.97;;;;;;;3.98;48.64;95646.75;4955552;28;20200;-79
2022/03/12 02:06:32;;;;;;;18.03;12.43;;;;;;;3.98;48.72;95644.16;4955707;28;20177;-79
2022/03/12 02:08:58;;;;;;;15.67;11.67;;;;;;;3.96;48.91;95638.28;4955625;28;20180;-80
2022/03/12 02:11:28;;;;;;;15.57;11.43;;;;;;;3.99;48.96;95640.66;4955444;29;20181;-80
2022/03/12 02:14:09;;;;;;;16.03;11.70;;;;;;;3.97;48.74;95643.31;4955358;29;20201;-77
2022/03/12 02:16:35;;;;;;;20.60;12.40;;;;;;;3.97;48.99;95647.63;4939637;29;20720;-77
2022/03/12 02:19:00;;;;;;;17.60;11.67;;;;;;;3.94;48.90;95642.72;4956688;28;20261;-78
2022/03/12 02:21:40;;;;;;;18.27;11.93;;;;;;;3.86;49.35;95647.56;4955160;28;20177;-79
2022/03/12 02:24:11;;;;;;;17.27;11.43;;;;;;;3.81;49.87;95647.06;4955326;29;20193;-77
2022/03/12 02:26:38;;;;;;;17.33;11.40;;;;;;;3.68;50.05;95647.06;4938900;28;20181;-79
2022/03/12 02:29:10;;;;;;;18.40;12.17;;;;;;;3.68;49.47;95641.91;4971269;28;20186;-78
2022/03/12 02:31:36;;;;;;;19.50;12.57;;;;;;;3.62;50.32;95650.03;4954536;29;20281;-80
2022/03/12 02:34:02;;;;;;;16.90;10.93;;;;;;;3.57;50.21;95646.97;4955209;29;20619;-80
2022/03/12 02:36:29;;;;;;;17.23;11.50;;;;;;;3.53;50.32;95645.50;4955033;29;20173;-79
2022/03/12 02:39:00;;;;;;;17.63;10.97;;;;;;;3.49;50.89;95644.09;4938920;29;20551;-79
2022/03/12 02:41:26;;;;;;;17.87;11.77;;;;;;;3.49;50.78;95646.66;4954594;28;20184;-80
2022/03/12 02:43:52;;;;;;;16.43;11.03;;;;;;;3.47;50.89;95643.38;4939038;29;20638;-79
2022/03/12 02:46:17;;;;;;;16.37;10.57;;;;;;;3.52;51.30;95647.25;4952093;28;20567;-78
2022/03/12 02:48:49;;;;;;;18.77;12.00;;;;;;;3.45;51.25;95651.19;4935390;29;20245;-78
2022/03/12 02:51:15;;;;;;;18.33;12.33;;;;;;;3.39;51.63;95644.69;4934142;29;20198;-78
2022/03/12 02:53:40;;;;;;;16.50;12.03;;;;;;;3.40;51.93;95656.59;4919427;29;20304;-80
2022/03/12 02:56:06;;;;;;;18.40;12.07;;;;;;;3.32;51.86;95660.59;4951080;28;20195;-79
2022/03/12 02:58:31;;;;;;;18.67;12.30;;;;;;;3.29;52.47;95656.50;4935066;29;20178;-79
2022/03/12 03:00:57;;;;;;;18.63;11.90;;;;;;;3.26;52.56;95648.16;4935244;29;20221;-79
2022/03/12 03:03:22;;;;;;;19.60;12.67;;;;;;;3.20;52.77;95651.97;4934789;29;20212;-79
2022/03/12 03:05:48;;;;;;;17.17;10.80;;;;;;;3.19;53.43;95649.50;4935270;29;20689;-79
2022/03/12 03:08:22;;;;;;;19.13;11.90;;;;;;;3.18;53.98;95658.09;4935301;29;20679;-79
2022/03/12 03:10:50;;;;;;;16.93;11.83;;;;;;;3.13;54.12;95660.97;4936012;29;20650;-79
2022/03/12 03:13:16;;;;;;;18.73;12.40;;;;;;;3.08;54.28;95653.56;4919639;29;20229;-79
2022/03/12 03:15:49;;;;;;;19.70;11.63;;;;;;;3.11;54.24;95658.50;4936985;29;20190;-79
2022/03/12 03:18:17;;;;;;;18.40;11.93;;;;;;;3.09;54.74;95662.94;4935833;29;20186;-79
2022/03/12 03:20:43;;;;;;;20.20;12.90;;;;;;;3.05;54.46;95669.16;4935992;29;20226;-78
2022/03/12 03:23:09;;;;;;;19.27;12.10;;;;;;;3.05;54.61;95664.03;4935203;29;20261;-79
2022/03/12 03:25:38;;;;;;;20.20;12.37;;;;;;;3.11;54.94;95673.09;4935395;29;20646;-80
2022/03/12 03:28:07;;;;;;;20.07;13.20;;;;;;;3.03;55.61;95683.03;4935592;29;20221;-79
2022/03/12 03:30:36;;;;;;;22.53;12.67;;;;;;;2.99;55.91;95677.25;4920309;29;20287;-79
2022/03/12 03:33:21;;;;;;;25.57;12.27;;;;;;;3.06;55.74;95686.19;4934970;29;20237;-79
2022/03/12 03:35:47;;;;;;;19.17;12.37;;;;;;;3.05;55.75;95688.88;4935499;29;20186;-78
2022/03/12 03:38:14;;;;;;;18.90;13.47;;;;;;;3.03;56.82;95688.16;4919636;29;20205;-78
2022/03/12 03:40:41;;;;;;;18.93;12.13;;;;;;;3.04;56.59;95688.06;4919169;29;20678;-79
2022/03/12 03:43:14;;;;;;;19.90;11.97;;;;;;;3.07;56.28;95692.16;4933832;29;20226;-78
2022/03/12 03:45:41;;;;;;;19.33;12.37;;;;;;;3.08;56.87;95691.22;4934309;29;20185;-78
2022/03/12 03:48:11;;;;;;;20.63;12.07;;;;;;;3.08;56.33;95684.34;4934309;29;20257;-77
2022/03/12 03:50:37;;;;;;;18.90;12.20;;;;;;;3.14;56.43;95688.28;4933615;29;20182;-77
2022/03/12 03:53:03;;;;;;;19.40;12.77;;;;;;;3.16;56.84;95690.75;4933685;29;20212;-78
2022/03/12 03:55:30;;;;;;;19.80;12.17;;;;;;;3.25;56.66;95687.56;4934339;29;20280;-78
2022/03/12 03:57:56;;;;;;;18.50;12.30;;;;;;;3.23;56.29;95677.41;4933991;29;20181;-78
2022/03/12 04:00:22;;;;;;;17.87;10.83;;;;;;;3.25;56.58;95687.56;4934328;29;20651;-78
2022/03/12 04:02:47;;;;;;;17.90;11.97;;;;;;;3.27;56.82;95688.28;4933635;29;20238;-77
2022/03/12 04:05:13;;;;;;;18.60;13.00;;;;;;;3.26;57.65;95689.22;4934107;29;20658;-77
2022/03/12 04:07:38;;;;;;;19.43;13.03;;;;;;;3.28;57.35;95702.78;4933966;29;20201;-78
2022/03/12 04:10:04;;;;;;;17.80;12.13;;;;;;;3.28;57.69;95688.22;4935503;29;20178;-78
2022/03/12 04:12:29;;;;;;;22.07;12.83;;;;;;;3.25;57.48;95698.66;4933347;29;20249;-78
2022/03/12 04:14:55;;;;;;;24.40;12.90;;;;;;;3.38;57.39;95696.97;4933825;29;20208;-78
2022/03/12 04:17:21;;;;;;;17.27;11.80;;;;;;;3.47;56.91;95697.28;4933765;29;20706;-78
2022/03/12 04:19:47;;;;;;;18.73;12.17;;;;;;;3.44;56.89;95695.72;4934938;29;20187;-78
2022/03/12 04:22:13;;;;;;;19.80;12.53;;;;;;;3.40;56.43;95695.09;4933208;29;20178;-78
2022/03/12 04:24:38;;;;;;;18.17;12.47;;;;;;;3.33;55.67;95699.00;4933735;29;20205;-78
2022/03/12 04:27:03;;;;;;;19.03;12.80;;;;;;;3.28;54.91;95693.34;4932665;29;20222;-77
2022/03/12 04:29:29;;;;;;;17.57;12.03;;;;;;;3.12;54.95;95701.22;4933665;29;20197;-77
2022/03/12 04:31:54;;;;;;;19.03;12.73;;;;;;;2.97;55.32;95702.19;4933359;29;20190;-78
2022/03/12 04:34:21;;;;;;;21.03;13.50;;;;;;;3.08;54.43;95699.75;4934891;29;20217;-78
2022/03/12 04:36:46;;;;;;;18.87;12.33;;;;;;;3.06;54.91;95708.47;4933590;29;20179;-78
2022/03/12 04:39:11;;;;;;;17.00;12.00;;;;;;;3.05;54.81;95711.97;4933440;29;20542;-78
2022/03/12 04:41:40;;;;;;;17.87;12.23;;;;;;;3.02;54.98;95715.56;4933058;29;20225;-78
2022/03/12 04:44:06;;;;;;;18.50;12.50;;;;;;;2.98;55.08;95728.66;4933412;29;20724;-78
2022/03/12 04:46:32;;;;;;;19.03;13.20;;;;;;;3.03;56.05;95745.41;4933234;29;20606;-77
2022/03/12 04:48:58;;;;;;;19.40;12.63;;;;;;;3.10;57.02;95751.81;4934189;29;20582;-77
2022/03/12 04:51:23;;;;;;;18.70;12.47;;;;;;;3.19;57.31;95739.31;4932066;29;20190;-78
2022/03/12 04:53:48;;;;;;;19.57;12.17;;;;;;;3.23;57.67;95745.88;4933317;29;20670;-78
2022/03/12 04:56:14;;;;;;;17.47;11.53;;;;;;;3.28;58.25;95749.00;4949232;28;20221;-78
2022/03/12 04:58:39;;;;;;;21.30;12.67;;;;;;;3.31;57.49;95744.47;4933451;29;20183;-78
2022/03/12 05:01:07;;;;;;;18.63;12.50;;;;;;;3.25;57.49;95749.19;4933296;29;20211;-77
2022/03/12 05:03:32;;;;;;;17.70;12.63;;;;;;;3.18;57.33;95747.91;4933124;29;20193;-78
2022/03/12 05:06:02;;;;;;;18.60;12.20;;;;;;;3.11;57.69;95750.06;4917349;29;20285;-79
2022/03/12 05:08:28;;;;;;;20.07;12.63;;;;;;;3.08;57.98;95745.94;4933349;29;20745;-78
2022/03/12 05:10:55;;;;;;;16.83;11.77;;;;;;;3.05;57.77;95751.28;4934419;29;20194;-79
2022/03/12 05:13:24;;;;;;;19.13;12.33;;;;;;;3.00;57.68;95755.84;4917001;29;20209;-77
2022/03/12 05:15:52;;;;;;;20.13;12.70;;;;;;;2.95;58.11;95762.22;4917824;29;20811;-79
2022/03/12 05:18:18;;;;;;;21.23;13.37;;;;;;;2.92;58.59;95777.81;4933099;29;20174;-79
2022/03/12 05:20:43;;;;;;;20.47;13.03;;;;;;;2.86;59.36;95781.56;4933398;29;20193;-79
2022/03/12 05:23:09;;;;;;;20.20;13.60;;;;;;;2.76;59.24;95773.63;4932882;29;20701;-78
2022/03/12 05:25:35;;;;;;;20.00;13.00;;;;;;;2.70;59.29;95780.84;4933182;29;20185;-79
2022/03/12 05:28:01;;;;;;;21.43;12.37;;;;;;;2.62;60.06;95777.94;4933120;29;20252;-79
2022/03/12 05:30:27;;;;;;;20.10;12.83;;;;;;;2.52;59.93;95783.63;4933578;29;20217;-79
2022/03/12 05:32:53;;;;;;;19.40;13.20;;;;;;;2.45;60.11;95778.94;4917243;29;20190;-79
2022/03/12 05:35:19;;;;;;;20.87;12.87;;;;;;;2.39;60.36;95781.91;4933260;29;20273;-79
2022/03/12 05:37:46;;;;;;;21.17;13.53;;;;;;;2.31;60.67;95786.66;4934851;29;20178;-79
2022/03/12 05:40:11;;;;;;;18.43;13.03;;;;;;;2.29;60.99;95789.28;4936880;29;20183;-79
2022/03/12 05:42:37;;;;;;;19.00;13.00;;;;;;;2.24;61.18;95787.03;4920860;29;20185;-79
2022/03/12 05:45:09;;;;;;;19.30;12.47;;;;;;;2.23;61.25;95782.81;4936670;29;20205;-79
2022/03/12 05:47:36;;;;;;;20.93;13.13;;;;;;;2.20;61.41;95782.16;4936969;29;20533;-78
2022/03/12 05:50:03;;;;;;;19.00;12.83;;;;;;;2.14;61.40;95787.66;4935670;29;20249;-79
2022/03/12 05:52:28;;;;;;;22.63;13.53;;;;;;;2.09;61.75;95784.53;4936100;29;20193;-78
2022/03/12 05:54:53;;;;;;;22.97;13.93;;;;;;;2.07;61.85;95792.31;4952329;28;20217;-78
2022/03/12 05:57:18;;;;;;;21.53;12.83;;;;;;;2.05;61.67;95789.03;4936738;29;20189;-79
2022/03/12 05:59:45;;;;;;;21.60;14.50;;;;;;;2.05;61.07;95788.22;4937720;29;20554;-79
2022/03/12 06:02:10;;;;;;;22.43;13.37;;;;;;;2.05;61.08;95794.16;4936144;29;20192;-79
2022/03/12 06:04:36;;;;;;;21.10;13.97;;;;;;;2.05;61.40;95795.88;4935906;29;20200;-78
2022/03/12 06:07:02;;;;;;;22.57;13.73;;;;;;;2.09;61.13;95803.28;4936218;29;20213;-79
2022/03/12 06:09:27;;;;;;;23.83;13.47;;;;;;;2.12;61.27;95799.72;4936638;29;20182;-80
2022/03/12 06:11:53;;;;;;;20.63;14.10;;;;;;;2.17;60.88;95802.84;4936036;29;20185;-80
2022/03/12 06:14:19;;;;;;;19.70;13.33;;;;;;;2.21;60.43;95801.75;4936106;29;20698;-78
2022/03/12 06:16:48;;;;;;;22.33;13.33;;;;;;;2.26;60.89;95807.44;4952066;28;20206;-79
2022/03/12 06:19:15;;;;;;;20.40;12.87;;;;;;;2.31;60.74;95804.59;4936052;29;20214;-77
2022/03/12 06:21:41;;;;;;;22.77;13.77;;;;;;;2.38;60.45;95803.31;4936151;29;20186;-80
2022/03/12 06:24:06;;;;;;;20.90;14.03;;;;;;;2.46;59.95;95807.06;4937043;29;20193;-79
2022/03/12 06:26:35;;;;;;;21.57;14.30;;;;;;;2.54;59.84;95812.53;4936536;29;20197;-80
2022/03/12 06:29:01;;;;;;;22.83;15.10;;;;;;;2.63;59.81;95805.22;4936601;29;20205;-81
2022/03/12 06:31:27;;;;;;;25.00;17.13;;;;;;;2.76;59.48;95811.25;4936717;29;20178;-80
2022/03/12 06:33:54;;;;;;;25.87;16.63;;;;;;;2.84;58.97;95803.94;4936825;29;20266;-79
2022/03/12 06:36:21;;;;;;;23.07;14.63;;;;;;;2.93;59.15;95808.50;4938447;29;20185;-82
2022/03/12 06:38:47;;;;;;;26.17;15.87;;;;;;;3.04;59.10;95818.09;4935927;29;20201;-80
2022/03/12 06:41:12;;;;;;;25.40;15.30;;;;;;;3.11;58.83;95821.91;4936688;29;20182;-80
2022/03/12 06:43:40;;;;;;;19.60;13.47;;;;;;;3.31;58.35;95818.91;4936343;29;20571;-81
2022/03/12 06:46:05;;;;;;;25.90;14.57;;;;;;;3.42;58.04;95815.66;4920876;29;20741;-81
2022/03/12 06:48:31;;;;;;;21.20;14.27;;;;;;;3.49;57.95;95818.66;4919356;29;20308;-80
2022/03/12 06:50:57;;;;;;;18.83;14.37;;;;;;;3.64;57.94;95813.38;4936230;29;20190;-80
2022/03/12 06:53:22;;;;;;;28.00;15.40;;;;;;;3.67;57.96;95812.34;4935907;29;20208;-81
2022/03/12 06:55:48;;;;;;;21.93;15.10;;;;;;;3.83;57.36;95812.19;4935397;29;20269;-81
2022/03/12 06:58:13;;;;;;;24.80;13.93;;;;;;;3.95;57.10;95808.81;4936219;29;20190;-81
2022/03/12 07:00:39;;;;;;;22.80;14.53;;;;;;;4.16;56.63;95819.44;4936568;29;20178;-80
2022/03/12 07:03:04;;;;;;;26.27;14.23;;;;;;;4.26;55.27;95812.75;4935605;29;20269;-80
2022/03/12 07:05:29;;;;;;;26.50;15.83;;;;;;;4.44;55.39;95815.84;4936389;29;20240;-80
2022/03/12 07:07:55;;;;;;;24.93;13.97;;;;;;;4.58;54.34;95810.56;4919882;29;20238;-79
2022/03/12 07:10:21;;;;;;;22.07;13.57;;;;;;;4.72;54.18;95812.19;4936086;29;20186;-81
2022/03/12 07:12:48;;;;;;;23.10;13.70;;;;;;;4.86;53.83;95811.22;4935172;29;20193;-79
2022/03/12 07:15:15;;;;;;;23.33;15.07;;;;;;;4.98;53.19;95815.53;4935788;29;20792;-80
2022/03/12 07:17:43;;;;;;;23.30;13.97;;;;;;;5.13;53.32;95813.66;4936014;29;20191;-79
2022/03/12 07:20:10;;;;;;;20.87;14.40;;;;;;;5.23;52.33;95817.22;4936243;29;20227;-80
2022/03/12 07:22:35;;;;;;;25.00;14.13;;;;;;;5.29;52.42;95811.63;4919562;29;20196;-79
2022/03/12 07:25:01;;;;;;;22.17;14.57;;;;;;;5.26;52.36;95820.41;4935459;29;20206;-80
2022/03/12 07:27:26;;;;;;;22.50;14.70;;;;;;;5.42;52.46;95809.84;4935698;29;20218;-80
2022/03/12 07:29:52;;;;;;;21.10;14.37;;;;;;;5.51;51.89;95818.66;4935884;29;20189;-80
2022/03/12 07:32:19;;;;;;;24.57;15.77;;;;;;;5.54;51.98;95813.28;4935864;29;20209;-79
2022/03/12 07:34:45;;;;;;;23.13;15.57;;;;;;;5.56;52.78;95812.22;4919781;29;20224;-78
2022/03/12 07:37:11;;;;;;;28.17;16.67;;;;;;;5.67;52.98;95814.03;4935049;29;20184;-79
2022/03/12 07:39:38;;;;;;;23.53;16.10;;;;;;;5.81;52.80;95816.44;4934983;29;20225;-78
2022/03/12 07:42:04;;;;;;;22.00;14.77;;;;;;;5.94;51.77;95819.78;4934553;29;20190;-78
2022/03/12 07:44:29;;;;;;;19.97;13.30;;;;;;;6.10;53.00;95823.84;4935210;29;20212;-78
2022/03/12 07:46:54;;;;;;;20.67;13.17;;;;;;;6.12;53.18;95817.63;4934979;29;20234;-79
2022/03/12 07:49:20;;;;;;;20.13;13.90;;;;;;;6.25;52.31;95826.06;4934999;29;20190;-80
2022/03/12 07:51:46;;;;;;;20.60;14.20;;;;;;;6.34;51.93;95821.16;4934929;29;20178;-80
2022/03/12 07:54:13;;;;;;;21.53;14.63;;;;;;;6.30;51.40;95820.59;4933941;29;20230;-80
2022/03/12 07:56:39;;;;;;;20.63;14.47;;;;;;;6.39;51.02;95819.06;4919296;29;20185;-79
2022/03/12 07:59:04;;;;;;;25.27;15.00;;;;;;;6.36;51.42;95820.13;4934713;29;20538;-79
2022/03/12 08:01:29;;;;;;;21.80;15.37;;;;;;;6.55;50.83;95816.16;4933330;29;20233;-79
2022/03/12 08:03:55;;;;;;;24.10;14.77;;;;;;;6.60;50.87;95822.59;4934604;29;20257;-79
2022/03/12 08:06:20;;;;;;;26.83;15.33;;;;;;;6.73;49.92;95830.25;4935062;29;20189;-79
2022/03/12 08:08:46;;;;;;;22.27;14.90;;;;;;;6.65;49.99;95823.09;4934864;29;20281;-80
2022/03/12 08:11:28;;;;;;;19.23;14.63;;;;;;;6.79;49.85;95830.56;4934407;29;20192;-77
2022/03/12 08:13:56;;;;;;;22.30;15.03;;;;;;;6.89;49.54;95835.88;4935006;29;20725;-81
2022/03/12 08:16:21;;;;;;;24.83;15.73;;;;;;;7.03;49.15;95838.19;4935000;29;20178;-80
2022/03/12 08:18:47;;;;;;;23.70;15.30;;;;;;;7.14;48.73;95836.53;4934701;29;20178;-79
2022/03/12 08:21:13;;;;;;;27.67;16.57;;;;;;;7.23;47.91;95838.41;4934296;29;20215;-79
2022/03/12 08:23:39;;;;;;;26.63;16.63;;;;;;;7.28;47.06;95836.28;4934606;29;20249;-79
2022/03/12 08:26:04;;;;;;;27.23;17.03;;;;;;;7.30;46.25;95829.25;4934388;29;20597;-77
2022/03/12 08:28:32;;;;;;;27.23;16.93;;;;;;;7.23;46.55;95833.25;4934170;29;20213;-80
2022/03/12 08:30:57;;;;;;;25.60;17.17;;;;;;;7.44;45.83;95835.91;4919455;29;20194;-80
2022/03/12 08:33:23;;;;;;;23.20;16.37;;;;;;;7.49;44.80;95838.94;4933714;29;20700;-79
2022/03/12 08:35:48;;;;;;;24.50;15.63;;;;;;;7.48;45.39;95853.63;4934417;29;20185;-79
2022/03/12 08:38:14;;;;;;;27.47;16.90;;;;;;;7.54;45.20;95853.16;4917255;29;20285;-79
2022/03/12 08:40:39;;;;;;;28.50;16.00;;;;;;;7.62;45.74;95850.78;4933516;29;20605;-79
2022/03/12 08:43:04;;;;;;;23.43;15.57;;;;;;;7.74;45.71;95843.81;4933771;29;20568;-80
2022/03/12 08:45:31;;;;;;;28.67;16.33;;;;;;;7.85;45.55;95853.28;4934095;29;20268;-79
2022/03/12 08:47:56;;;;;;;23.13;15.23;;;;;;;7.88;45.73;95851.28;4934016;29;20580;-79
2022/03/12 08:50:23;;;;;;;25.20;15.90;;;;;;;7.97;45.47;95848.91;4933416;29;20201;-79
2022/03/12 08:52:49;;;;;;;22.90;15.57;;;;;;;8.10;45.07;95849.53;4931870;29;20678;-79
2022/03/12 08:55:14;;;;;;;23.03;15.20;;;;;;;8.17;45.47;95846.31;4933476;29;20236;-79
2022/03/12 08:57:39;;;;;;;128.83;24.10;;;;;;;8.31;45.61;95845.22;4933730;29;20642;-80
2022/03/12 09:00:07;;;;;;;21.17;14.63;;;;;;;8.49;46.24;95853.25;4933874;29;20241;-78
2022/03/12 09:02:37;;;;;;;21.40;14.10;;;;;;;8.62;46.67;95859.03;4933189;28;20214;-80
2022/03/12 09:05:04;;;;;;;18.93;13.63;;;;;;;8.78;47.47;95856.81;4933374;29;20714;-80
2022/03/12 09:07:30;;;;;;;20.63;14.43;;;;;;;8.74;47.64;95860.59;4933492;29;20220;-78
2022/03/12 09:09:56;;;;;;;21.53;14.80;;;;;;;8.96;47.13;95867.38;4933539;29;20186;-78
2022/03/12 09:12:21;;;;;;;19.27;13.60;;;;;;;8.98;46.69;95855.13;4950325;28;20197;-79
2022/03/12 09:14:46;;;;;;;18.50;13.40;;;;;;;9.12;45.89;95869.50;4937266;29;20201;-79
2022/03/12 09:17:11;;;;;;;19.90;12.70;;;;;;;9.16;46.26;95863.09;4937651;29;20191;-79
2022/03/12 09:19:37;;;;;;;22.27;14.03;;;;;;;9.27;45.45;95857.78;4938402;29;20190;-79
2022/03/12 09:22:03;;;;;;;17.93;13.27;;;;;;;9.25;45.10;95864.88;4937586;29;20193;-79
2022/03/12 09:24:28;;;;;;;20.67;14.10;;;;;;;9.33;44.73;95859.88;4938945;29;20288;-79
2022/03/12 09:26:53;;;;;;;22.50;13.50;;;;;;;9.30;43.75;95862.72;4937553;29;20200;-79
2022/03/12 09:29:19;;;;;;;19.80;14.60;;;;;;;9.36;44.58;95869.16;4937194;29;20265;-79
2022/03/12 09:31:44;;;;;;;18.87;13.70;;;;;;;9.38;44.23;95869.84;4937162;29;20210;-77
2022/03/12 09:34:10;;;;;;;21.43;14.57;;;;;;;9.31;44.64;95866.97;4937258;29;20256;-78
2022/03/12 09:36:36;;;;;;;23.57;14.37;;;;;;;9.30;44.04;95862.72;4937516;29;20217;-77
2022/03/12 09:39:04;;;;;;;20.43;13.53;;;;;;;9.40;45.13;95864.53;4953154;28;20186;-80
2022/03/12 09:41:29;;;;;;;20.87;13.30;;;;;;;9.50;45.01;95860.19;4946999;29;20268;-80
2022/03/12 09:43:55;;;;;;;19.37;13.50;;;;;;;9.63;44.50;95865.97;4955710;29;20231;-78
2022/03/12 09:46:20;;;;;;;18.07;13.27;;;;;;;9.80;44.47;95865.28;4956047;29;20177;-79
2022/03/12 09:48:46;;;;;;;20.43;13.63;;;;;;;9.76;44.55;95858.72;4955279;28;20791;-78
2022/03/12 09:51:11;;;;;;;22.63;14.33;;;;;;;9.80;43.86;95859.28;4939521;29;20189;-76
2022/03/12 09:53:37;;;;;;;21.63;13.87;;;;;;;9.78;43.86;95856.81;4955800;29;20212;-79
2022/03/12 09:56:03;;;;;;;21.17;14.23;;;;;;;9.75;43.41;95857.09;4956090;28;20646;-79
2022/03/12 09:58:28;;;;;;;23.60;13.10;;;;;;;9.81;43.35;95853.97;4955725;28;20185;-79
2022/03/12 10:00:53;;;;;;;19.23;13.80;;;;;;;9.84;43.71;95856.28;4956684;28;20181;-78
2022/03/12 10:03:19;;;;;;;23.13;13.83;;;;;;;9.92;43.35;95853.84;4959912;28;20205;-77
2022/03/12 10:05:44;;;;;;;20.00;13.93;;;;;;;10.03;43.65;95850.28;4961359;28;20212;-78
2022/03/12 10:08:09;;;;;;;27.00;15.43;;;;;;;9.98;42.76;95852.44;4961157;28;20237;-79
2022/03/12 10:10:35;;;;;;;23.70;15.33;;;;;;;10.03;43.55;95852.06;4942538;29;20185;-79
2022/03/12 10:13:01;;;;;;;20.10;15.00;;;;;;;10.13;44.19;95851.09;4956799;28;20197;-79
2022/03/12 10:15:26;;;;;;;21.23;14.63;;;;;;;10.31;43.41;95853.84;4958924;28;20201;-78
2022/03/12 10:17:52;;;;;;;22.33;14.83;;;;;;;10.46;43.26;95854.25;4942257;29;20181;-79
2022/03/12 10:20:18;;;;;;;20.57;15.10;;;;;;;10.57;43.29;95853.25;4956619;28;20551;-78
2022/03/12 10:22:45;;;;;;;21.37;14.47;;;;;;;10.43;43.12;95847.56;4956812;28;20185;-80
2022/03/12 10:25:12;;;;;;;22.83;15.17;;;;;;;10.53;42.87;95851.91;4955512;28;20188;-80
2022/03/12 10:27:37;;;;;;;19.93;15.30;;;;;;;10.72;43.43;95841.47;4955740;28;20670;-80
2022/03/12 10:30:05;;;;;;;22.00;13.97;;;;;;;10.67;43.97;95841.06;4939963;29;20192;-82
2022/03/12 10:32:34;;;;;;;18.60;13.13;;;;;;;10.76;43.89;95835.84;4956429;28;20673;-82
2022/03/12 10:35:01;;;;;;;23.93;14.53;;;;;;;10.88;43.01;95839.09;4941121;28;20221;-81
2022/03/12 10:37:32;;;;;;;15.73;11.83;;;;;;;10.55;44.25;95842.19;4936652;29;20186;-79
2022/03/12 10:40:06;;;;;;;15.67;11.97;;;;;;;10.70;44.08;95846.00;4935698;29;20186;-79
2022/03/12 10:42:31;;;;;;;15.40;12.10;;;;;;;10.81;44.09;95834.63;4952255;28;20178;-81
2022/03/12 10:45:18;;;;;;;18.23;11.93;;;;;;;10.87;43.26;95837.47;4920422;29;20256;-81
2022/03/12 10:47:53;;;;;;;19.43;11.83;;;;;;;10.99;43.38;95838.91;4936617;29;20592;-80
2022/03/12 10:50:37;;;;;;;16.53;11.93;;;;;;;11.08;43.30;95829.44;4935452;29;20253;-82
2022/03/12 10:53:06;;;;;;;18.57;12.23;;;;;;;10.87;43.15;95819.28;4936684;29;20288;-81
2022/03/12 10:55:37;;;;;;;14.57;11.07;;;;;;;10.80;43.59;95814.78;4937038;29;20649;-81
2022/03/12 10:58:20;;;;;;;17.93;12.00;;;;;;;10.54;43.36;95831.00;4936901;29;20245;-83
2022/03/12 11:00:46;;;;;;;15.07;11.03;;;;;;;10.37;44.17;95824.75;4938519;29;20184;-82
2022/03/12 11:03:18;;;;;;;18.17;12.50;;;;;;;10.51;43.76;95818.28;4937085;29;20205;-82
2022/03/12 11:05:43;;;;;;;18.37;12.00;;;;;;;10.65;43.28;95828.22;4937405;29;20198;-82
2022/03/12 11:08:24;;;;;;;16.10;11.87;;;;;;;10.50;43.59;95833.03;4920580;29;20312;-81
2022/03/12 11:11:12;;;;;;;18.07;12.03;;;;;;;10.76;43.92;95829.81;4952835;28;20186;-81
2022/03/12 11:13:51;;;;;;;16.87;10.87;;;;;;;10.81;43.44;95830.22;4937168;29;20198;-81
2022/03/12 11:16:20;;;;;;;17.93;12.20;;;;;;;10.86;42.59;95822.00;4924235;29;20189;-82
2022/03/12 11:19:07;;;;;;;17.63;11.27;;;;;;;10.98;41.69;95815.69;4937782;29;20261;-81
2022/03/12 11:21:41;;;;;;;15.63;11.23;;;;;;;10.88;41.92;95815.72;4936985;29;20182;-80
2022/03/12 11:24:13;;;;;;;18.80;12.20;;;;;;;10.97;42.64;95820.06;4935675;29;20300;-80